sensor_id;sensor_type;location;lat;lon;timestamp;temperature;humidity
39997;DHT22;25688;52.338;21.072;2023-08-21T00:02:20;17.60;99.90
39997;DHT22;25688;52.338;21.072;2023-08-21T00:04:46;17.60;99.90
39997;DHT22;25688;52.338;21.072;2023-08-21T00:07:12;17.60;99.90
39997;DHT22;25688;52.338;21.072;2023-08-21T00:09:38;17.60;99.90
39997;DHT22;25688;52.338;21.072;2023-08-21T00:12:04;17.60;99.90
39997;DHT22;25688;52.338;21.072;2023-08-21T00:14:30;17.60;99.90
39997;DHT22;25688;52.338;21.072;2023-08-21T00:16:55;17.60;99.90
39997;DHT22;25688;52.338;21.072;2023-08-21T00:19:21;17.50;99.90
39997;DHT22;25688;52.338;21.072;2023-08-21T00:21:47;17.50;99.90
39997;DHT22;25688;52.338;21.072;2023-08-21T00:24:13;17.40;99.90
39997;DHT22;25688;52.338;21.072;2023-08-21T00:26:38;17.40;99.90
39997;DHT22;25688;52.338;21.072;2023-08-21T00:29:04;17.40;99.90
39997;DHT22;25688;52.338;21.072;2023-08-21T00:31:30;17.50;99.90
39997;DHT22;25688;52.338;21.072;2023-08-21T00:33:56;17.40;99.90
39997;DHT22;25688;52.338;21.072;2023-08-21T00:36:21;17.40;99.90
39997;DHT22;25688;52.338;21.072;2023-08-21T00:38:47;17.40;99.90
39997;DHT22;25688;52.338;21.072;2023-08-21T00:41:14;17.40;99.90
39997;DHT22;25688;52.338;21.072;2023-08-21T00:43:39;17.40;99.90
39997;DHT22;25688;52.338;21.072;2023-08-21T00:46:05;17.40;99.90
39997;DHT22;25688;52.338;21.072;2023-08-21T00:48:31;17.40;99.90
39997;DHT22;25688;52.338;21.072;2023-08-21T00:50:57;17.40;99.90
39997;DHT22;25688;52.338;21.072;2023-08-21T00:53:24;17.30;99.90
39997;DHT22;25688;52.338;21.072;2023-08-21T00:55:50;17.30;99.90
39997;DHT22;25688;52.338;21.072;2023-08-21T00:58:17;17.30;99.90
39997;DHT22;25688;52.338;21.072;2023-08-21T01:00:45;17.30;99.90
39997;DHT22;25688;52.338;21.072;2023-08-21T01:03:12;17.30;99.90
39997;DHT22;25688;52.338;21.072;2023-08-21T01:05:38;17.20;99.90
39997;DHT22;25688;52.338;21.072;2023-08-21T01:08:14;17.20;99.90
39997;DHT22;25688;52.338;21.072;2023-08-21T01:10:58;17.20;99.90
39997;DHT22;25688;52.338;21.072;2023-08-21T01:13:54;17.10;99.90
39997;DHT22;25688;52.338;21.072;2023-08-21T01:16:21;17.10;99.90
39997;DHT22;25688;52.338;21.072;2023-08-21T01:18:47;17.00;99.90
39997;DHT22;25688;52.338;21.072;2023-08-21T01:21:14;17.00;99.90
39997;DHT22;25688;52.338;21.072;2023-08-21T01:23:41;16.90;99.90
39997;DHT22;25688;52.338;21.072;2023-08-21T01:26:08;16.90;99.90
39997;DHT22;25688;52.338;21.072;2023-08-21T01:28:34;16.90;99.90
39997;DHT22;25688;52.338;21.072;2023-08-21T01:33:40;16.80;99.90
39997;DHT22;25688;52.338;21.072;2023-08-21T01:36:07;16.90;99.90
39997;DHT22;25688;52.338;21.072;2023-08-21T01:38:33;16.90;99.90
39997;DHT22;25688;52.338;21.072;2023-08-21T01:41:01;16.90;99.90
39997;DHT22;25688;52.338;21.072;2023-08-21T01:43:27;16.90;99.90
39997;DHT22;25688;52.338;21.072;2023-08-21T01:45:53;17.00;99.90
39997;DHT22;25688;52.338;21.072;2023-08-21T01:48:19;17.00;99.90
39997;DHT22;25688;52.338;21.072;2023-08-21T01:50:45;17.00;99.90
39997;DHT22;25688;52.338;21.072;2023-08-21T01:53:10;17.00;99.90
39997;DHT22;25688;52.338;21.072;2023-08-21T01:55:36;17.00;99.90
39997;DHT22;25688;52.338;21.072;2023-08-21T01:58:02;17.00;99.90
39997;DHT22;25688;52.338;21.072;2023-08-21T02:00:27;17.00;99.90
39997;DHT22;25688;52.338;21.072;2023-08-21T02:02:53;17.00;99.90
39997;DHT22;25688;52.338;21.072;2023-08-21T02:05:19;17.00;99.90
39997;DHT22;25688;52.338;21.072;2023-08-21T02:07:45;17.00;99.90
39997;DHT22;25688;52.338;21.072;2023-08-21T02:10:11;17.00;99.90
39997;DHT22;25688;52.338;21.072;2023-08-21T02:12:37;17.00;99.90
39997;DHT22;25688;52.338;21.072;2023-08-21T02:15:03;17.00;99.90
39997;DHT22;25688;52.338;21.072;2023-08-21T02:17:30;16.90;99.90
39997;DHT22;25688;52.338;21.072;2023-08-21T02:19:55;16.90;99.90
39997;DHT22;25688;52.338;21.072;2023-08-21T02:22:21;16.90;99.90
39997;DHT22;25688;52.338;21.072;2023-08-21T02:24:47;16.80;99.90
39997;DHT22;25688;52.338;21.072;2023-08-21T02:27:12;16.80;99.90
39997;DHT22;25688;52.338;21.072;2023-08-21T02:29:38;16.80;99.90
39997;DHT22;25688;52.338;21.072;2023-08-21T02:32:04;16.80;99.90
39997;DHT22;25688;52.338;21.072;2023-08-21T02:34:30;16.80;99.90
39997;DHT22;25688;52.338;21.072;2023-08-21T02:36:56;16.80;99.90
39997;DHT22;25688;52.338;21.072;2023-08-21T02:39:21;16.70;99.90
39997;DHT22;25688;52.338;21.072;2023-08-21T02:41:47;16.70;99.90
39997;DHT22;25688;52.338;21.072;2023-08-21T02:44:13;16.70;99.90
39997;DHT22;25688;52.338;21.072;2023-08-21T02:46:39;16.80;99.90
39997;DHT22;25688;52.338;21.072;2023-08-21T02:49:04;16.80;99.90
39997;DHT22;25688;52.338;21.072;2023-08-21T02:51:30;16.80;99.90
39997;DHT22;25688;52.338;21.072;2023-08-21T02:53:56;16.80;99.90
39997;DHT22;25688;52.338;21.072;2023-08-21T02:56:22;16.90;99.90
39997;DHT22;25688;52.338;21.072;2023-08-21T02:58:47;16.90;99.90
39997;DHT22;25688;52.338;21.072;2023-08-21T03:01:13;16.90;99.90
39997;DHT22;25688;52.338;21.072;2023-08-21T03:03:39;16.90;99.90
39997;DHT22;25688;52.338;21.072;2023-08-21T03:06:05;16.80;99.90
39997;DHT22;25688;52.338;21.072;2023-08-21T03:08:31;16.80;99.90
39997;DHT22;25688;52.338;21.072;2023-08-21T03:10:56;16.80;99.90
39997;DHT22;25688;52.338;21.072;2023-08-21T03:13:22;16.80;99.90
39997;DHT22;25688;52.338;21.072;2023-08-21T03:15:48;16.70;99.90
39997;DHT22;25688;52.338;21.072;2023-08-21T03:18:14;16.70;99.90
39997;DHT22;25688;52.338;21.072;2023-08-21T03:20:47;16.70;99.90
39997;DHT22;25688;52.338;21.072;2023-08-21T03:23:13;16.60;99.90
39997;DHT22;25688;52.338;21.072;2023-08-21T03:25:39;16.50;99.90
39997;DHT22;25688;52.338;21.072;2023-08-21T03:28:05;16.50;99.90
39997;DHT22;25688;52.338;21.072;2023-08-21T03:30:31;16.40;99.90
39997;DHT22;25688;52.338;21.072;2023-08-21T03:32:56;16.40;99.90
39997;DHT22;25688;52.338;21.072;2023-08-21T03:35:22;16.40;99.90
39997;DHT22;25688;52.338;21.072;2023-08-21T03:37:48;16.40;99.90
39997;DHT22;25688;52.338;21.072;2023-08-21T03:40:14;16.50;99.90
39997;DHT22;25688;52.338;21.072;2023-08-21T03:42:39;16.40;99.90
39997;DHT22;25688;52.338;21.072;2023-08-21T03:45:05;16.40;99.90
39997;DHT22;25688;52.338;21.072;2023-08-21T03:47:31;16.40;99.90
39997;DHT22;25688;52.338;21.072;2023-08-21T03:49:57;16.30;99.90
39997;DHT22;25688;52.338;21.072;2023-08-21T03:52:23;16.30;99.90
39997;DHT22;25688;52.338;21.072;2023-08-21T03:54:48;16.30;99.90
39997;DHT22;25688;52.338;21.072;2023-08-21T03:57:14;16.40;99.90
39997;DHT22;25688;52.338;21.072;2023-08-21T03:59:40;16.40;99.90
39997;DHT22;25688;52.338;21.072;2023-08-21T04:02:06;16.40;99.90
39997;DHT22;25688;52.338;21.072;2023-08-21T04:04:32;16.40;99.90
39997;DHT22;25688;52.338;21.072;2023-08-21T04:06:57;16.50;99.90
39997;DHT22;25688;52.338;21.072;2023-08-21T04:09:23;16.40;99.90
39997;DHT22;25688;52.338;21.072;2023-08-21T04:11:49;16.50;99.90
39997;DHT22;25688;52.338;21.072;2023-08-21T04:14:14;16.60;99.90
39997;DHT22;25688;52.338;21.072;2023-08-21T04:16:40;16.60;99.90
39997;DHT22;25688;52.338;21.072;2023-08-21T04:19:06;16.80;99.90
39997;DHT22;25688;52.338;21.072;2023-08-21T04:21:32;16.90;99.90
39997;DHT22;25688;52.338;21.072;2023-08-21T04:23:57;16.90;99.90
39997;DHT22;25688;52.338;21.072;2023-08-21T04:26:23;17.00;99.90
39997;DHT22;25688;52.338;21.072;2023-08-21T04:28:49;17.10;99.90
39997;DHT22;25688;52.338;21.072;2023-08-21T04:31:14;17.30;99.90
39997;DHT22;25688;52.338;21.072;2023-08-21T04:33:40;17.40;99.90
39997;DHT22;25688;52.338;21.072;2023-08-21T04:36:06;17.40;99.90
39997;DHT22;25688;52.338;21.072;2023-08-21T04:38:32;17.60;99.90
39997;DHT22;25688;52.338;21.072;2023-08-21T04:41:06;17.70;99.90
39997;DHT22;25688;52.338;21.072;2023-08-21T04:43:32;17.90;99.90
39997;DHT22;25688;52.338;21.072;2023-08-21T04:45:57;18.10;99.90
39997;DHT22;25688;52.338;21.072;2023-08-21T04:48:23;18.30;99.90
39997;DHT22;25688;52.338;21.072;2023-08-21T04:50:49;18.60;99.90
39997;DHT22;25688;52.338;21.072;2023-08-21T04:53:15;18.80;99.90
39997;DHT22;25688;52.338;21.072;2023-08-21T04:55:41;19.10;99.90
39997;DHT22;25688;52.338;21.072;2023-08-21T04:58:08;19.30;99.90
39997;DHT22;25688;52.338;21.072;2023-08-21T05:00:34;19.50;99.90
39997;DHT22;25688;52.338;21.072;2023-08-21T05:02:59;19.70;99.90
39997;DHT22;25688;52.338;21.072;2023-08-21T05:05:25;19.80;99.90
39997;DHT22;25688;52.338;21.072;2023-08-21T05:07:53;19.90;99.90
39997;DHT22;25688;52.338;21.072;2023-08-21T05:10:18;20.00;99.90
39997;DHT22;25688;52.338;21.072;2023-08-21T05:12:45;20.00;99.90
39997;DHT22;25688;52.338;21.072;2023-08-21T05:15:11;20.10;99.90
39997;DHT22;25688;52.338;21.072;2023-08-21T05:17:38;20.30;99.90
39997;DHT22;25688;52.338;21.072;2023-08-21T05:20:04;20.30;99.90
39997;DHT22;25688;52.338;21.072;2023-08-21T05:22:31;20.50;99.90
39997;DHT22;25688;52.338;21.072;2023-08-21T05:24:56;20.50;99.90
39997;DHT22;25688;52.338;21.072;2023-08-21T05:27:22;20.60;99.90
39997;DHT22;25688;52.338;21.072;2023-08-21T05:29:48;20.80;99.90
39997;DHT22;25688;52.338;21.072;2023-08-21T05:32:16;20.90;99.90
39997;DHT22;25688;52.338;21.072;2023-08-21T05:34:42;21.00;99.90
39997;DHT22;25688;52.338;21.072;2023-08-21T05:37:08;21.10;99.90
39997;DHT22;25688;52.338;21.072;2023-08-21T05:39:33;21.20;99.90
39997;DHT22;25688;52.338;21.072;2023-08-21T05:41:59;21.30;99.90
39997;DHT22;25688;52.338;21.072;2023-08-21T05:44:25;21.30;99.90
39997;DHT22;25688;52.338;21.072;2023-08-21T05:46:51;21.40;99.90
39997;DHT22;25688;52.338;21.072;2023-08-21T05:49:16;21.50;99.90
39997;DHT22;25688;52.338;21.072;2023-08-21T05:51:42;21.60;99.90
39997;DHT22;25688;52.338;21.072;2023-08-21T05:54:08;21.60;99.90
39997;DHT22;25688;52.338;21.072;2023-08-21T05:56:33;21.70;99.90
39997;DHT22;25688;52.338;21.072;2023-08-21T05:58:59;21.70;99.90
39997;DHT22;25688;52.338;21.072;2023-08-21T06:01:25;21.70;99.90
39997;DHT22;25688;52.338;21.072;2023-08-21T06:03:51;21.60;99.90
39997;DHT22;25688;52.338;21.072;2023-08-21T06:06:16;21.60;99.90
39997;DHT22;25688;52.338;21.072;2023-08-21T06:08:42;21.60;99.90
39997;DHT22;25688;52.338;21.072;2023-08-21T06:11:08;21.70;99.90
39997;DHT22;25688;52.338;21.072;2023-08-21T06:13:34;21.80;99.90
39997;DHT22;25688;52.338;21.072;2023-08-21T06:15:59;21.90;99.90
39997;DHT22;25688;52.338;21.072;2023-08-21T06:18:25;22.10;99.90
39997;DHT22;25688;52.338;21.072;2023-08-21T06:20:51;22.20;99.90
39997;DHT22;25688;52.338;21.072;2023-08-21T06:23:20;22.30;99.90
39997;DHT22;25688;52.338;21.072;2023-08-21T06:25:51;22.30;99.90
39997;DHT22;25688;52.338;21.072;2023-08-21T06:28:16;22.20;99.90
39997;DHT22;25688;52.338;21.072;2023-08-21T06:30:42;22.20;99.90
39997;DHT22;25688;52.338;21.072;2023-08-21T06:33:08;22.30;99.90
39997;DHT22;25688;52.338;21.072;2023-08-21T06:35:36;22.40;99.90
39997;DHT22;25688;52.338;21.072;2023-08-21T06:38:03;22.30;99.90
39997;DHT22;25688;52.338;21.072;2023-08-21T06:40:29;22.40;99.90
39997;DHT22;25688;52.338;21.072;2023-08-21T06:42:54;22.40;99.90
39997;DHT22;25688;52.338;21.072;2023-08-21T06:45:20;22.40;99.90
39997;DHT22;25688;52.338;21.072;2023-08-21T06:47:46;22.50;99.90
39997;DHT22;25688;52.338;21.072;2023-08-21T06:50:12;22.60;99.90
39997;DHT22;25688;52.338;21.072;2023-08-21T06:52:39;22.60;99.90
39997;DHT22;25688;52.338;21.072;2023-08-21T06:55:05;22.80;99.90
39997;DHT22;25688;52.338;21.072;2023-08-21T06:57:31;22.80;99.90
39997;DHT22;25688;52.338;21.072;2023-08-21T06:59:57;22.90;99.90
39997;DHT22;25688;52.338;21.072;2023-08-21T07:02:26;22.90;99.90
39997;DHT22;25688;52.338;21.072;2023-08-21T07:04:51;23.00;99.90
39997;DHT22;25688;52.338;21.072;2023-08-21T07:07:17;23.00;99.90
39997;DHT22;25688;52.338;21.072;2023-08-21T07:09:43;23.10;99.90
39997;DHT22;25688;52.338;21.072;2023-08-21T07:12:08;23.20;99.90
39997;DHT22;25688;52.338;21.072;2023-08-21T07:14:34;23.60;99.90
39997;DHT22;25688;52.338;21.072;2023-08-21T07:17:00;23.80;99.90
39997;DHT22;25688;52.338;21.072;2023-08-21T07:19:25;24.10;99.90
39997;DHT22;25688;52.338;21.072;2023-08-21T07:21:51;24.40;99.90
39997;DHT22;25688;52.338;21.072;2023-08-21T07:24:17;24.60;99.90
39997;DHT22;25688;52.338;21.072;2023-08-21T07:26:42;24.60;99.90
39997;DHT22;25688;52.338;21.072;2023-08-21T07:29:08;24.60;99.90
39997;DHT22;25688;52.338;21.072;2023-08-21T07:31:34;24.70;99.90
39997;DHT22;25688;52.338;21.072;2023-08-21T07:34:00;24.70;99.90
39997;DHT22;25688;52.338;21.072;2023-08-21T07:36:26;24.70;99.90
39997;DHT22;25688;52.338;21.072;2023-08-21T07:38:51;24.60;99.90
39997;DHT22;25688;52.338;21.072;2023-08-21T07:41:17;24.50;99.90
39997;DHT22;25688;52.338;21.072;2023-08-21T07:43:44;24.50;99.90
39997;DHT22;25688;52.338;21.072;2023-08-21T07:46:11;24.40;99.90
39997;DHT22;25688;52.338;21.072;2023-08-21T07:48:42;24.30;99.90
39997;DHT22;25688;52.338;21.072;2023-08-21T07:51:08;24.10;99.90
39997;DHT22;25688;52.338;21.072;2023-08-21T07:53:34;24.20;99.90
39997;DHT22;25688;52.338;21.072;2023-08-21T07:56:00;24.10;99.90
39997;DHT22;25688;52.338;21.072;2023-08-21T07:58:26;24.10;99.90
39997;DHT22;25688;52.338;21.072;2023-08-21T08:00:52;24.20;99.90
39997;DHT22;25688;52.338;21.072;2023-08-21T08:03:18;24.20;99.90
39997;DHT22;25688;52.338;21.072;2023-08-21T08:05:44;24.10;99.90
39997;DHT22;25688;52.338;21.072;2023-08-21T08:08:10;24.20;99.90
39997;DHT22;25688;52.338;21.072;2023-08-21T08:10:40;24.40;99.90
39997;DHT22;25688;52.338;21.072;2023-08-21T08:13:11;24.50;99.90
39997;DHT22;25688;52.338;21.072;2023-08-21T08:15:38;24.60;99.90
39997;DHT22;25688;52.338;21.072;2023-08-21T08:18:03;24.50;99.90
39997;DHT22;25688;52.338;21.072;2023-08-21T08:20:30;24.40;99.90
39997;DHT22;25688;52.338;21.072;2023-08-21T08:22:55;24.30;99.90
39997;DHT22;25688;52.338;21.072;2023-08-21T08:25:22;24.20;99.90
39997;DHT22;25688;52.338;21.072;2023-08-21T08:27:47;24.50;99.90
39997;DHT22;25688;52.338;21.072;2023-08-21T08:30:14;24.70;99.90
39997;DHT22;25688;52.338;21.072;2023-08-21T08:32:42;24.70;99.90
39997;DHT22;25688;52.338;21.072;2023-08-21T08:35:12;24.60;99.90
39997;DHT22;25688;52.338;21.072;2023-08-21T08:37:38;24.60;99.90
39997;DHT22;25688;52.338;21.072;2023-08-21T08:40:04;24.40;99.90
39997;DHT22;25688;52.338;21.072;2023-08-21T08:42:30;24.30;99.90
39997;DHT22;25688;52.338;21.072;2023-08-21T08:47:26;24.30;99.90
39997;DHT22;25688;52.338;21.072;2023-08-21T08:49:54;24.30;99.90
39997;DHT22;25688;52.338;21.072;2023-08-21T08:52:21;24.40;99.90
39997;DHT22;25688;52.338;21.072;2023-08-21T08:57:15;24.80;99.90
39997;DHT22;25688;52.338;21.072;2023-08-21T08:59:41;24.50;99.90
39997;DHT22;25688;52.338;21.072;2023-08-21T09:02:07;24.70;99.90
39997;DHT22;25688;52.338;21.072;2023-08-21T09:04:32;24.80;99.90
39997;DHT22;25688;52.338;21.072;2023-08-21T09:07:11;24.80;99.90
39997;DHT22;25688;52.338;21.072;2023-08-21T09:09:41;25.10;99.90
39997;DHT22;25688;52.338;21.072;2023-08-21T09:12:14;25.30;99.90
39997;DHT22;25688;52.338;21.072;2023-08-21T09:14:40;25.30;99.90
39997;DHT22;25688;52.338;21.072;2023-08-21T09:17:07;25.50;99.90
39997;DHT22;25688;52.338;21.072;2023-08-21T09:19:32;25.60;99.90
39997;DHT22;25688;52.338;21.072;2023-08-21T09:21:59;25.60;99.90
39997;DHT22;25688;52.338;21.072;2023-08-21T09:24:24;25.70;99.90
39997;DHT22;25688;52.338;21.072;2023-08-21T09:26:50;25.80;99.90
39997;DHT22;25688;52.338;21.072;2023-08-21T09:29:16;25.90;99.90
39997;DHT22;25688;52.338;21.072;2023-08-21T09:31:46;25.90;99.90
39997;DHT22;25688;52.338;21.072;2023-08-21T09:34:12;26.10;99.90
39997;DHT22;25688;52.338;21.072;2023-08-21T09:36:38;26.20;99.90
39997;DHT22;25688;52.338;21.072;2023-08-21T09:39:05;26.30;99.90
39997;DHT22;25688;52.338;21.072;2023-08-21T09:41:32;26.40;99.90
39997;DHT22;25688;52.338;21.072;2023-08-21T09:44:01;26.30;99.90
39997;DHT22;25688;52.338;21.072;2023-08-21T09:46:27;26.40;99.90
39997;DHT22;25688;52.338;21.072;2023-08-21T09:48:54;26.60;99.90
39997;DHT22;25688;52.338;21.072;2023-08-21T09:51:20;26.60;99.90
39997;DHT22;25688;52.338;21.072;2023-08-21T09:53:48;26.60;99.90
39997;DHT22;25688;52.338;21.072;2023-08-21T09:56:14;26.50;99.90
39997;DHT22;25688;52.338;21.072;2023-08-21T09:58:40;26.50;99.90
39997;DHT22;25688;52.338;21.072;2023-08-21T10:01:07;26.50;99.90
39997;DHT22;25688;52.338;21.072;2023-08-21T10:03:40;26.50;99.90
39997;DHT22;25688;52.338;21.072;2023-08-21T10:06:08;26.50;99.90
39997;DHT22;25688;52.338;21.072;2023-08-21T10:08:37;26.40;99.90
39997;DHT22;25688;52.338;21.072;2023-08-21T10:11:09;26.40;99.90
39997;DHT22;25688;52.338;21.072;2023-08-21T10:13:38;26.50;99.90
39997;DHT22;25688;52.338;21.072;2023-08-21T10:16:06;26.50;99.90
39997;DHT22;25688;52.338;21.072;2023-08-21T10:18:36;26.50;99.90
39997;DHT22;25688;52.338;21.072;2023-08-21T10:21:13;26.50;99.90
39997;DHT22;25688;52.338;21.072;2023-08-21T10:23:39;26.60;99.90
39997;DHT22;25688;52.338;21.072;2023-08-21T10:26:07;26.90;99.90
39997;DHT22;25688;52.338;21.072;2023-08-21T10:29:00;27.10;99.90
39997;DHT22;25688;52.338;21.072;2023-08-21T10:31:38;27.10;99.90
39997;DHT22;25688;52.338;21.072;2023-08-21T10:34:09;27.10;99.90
39997;DHT22;25688;52.338;21.072;2023-08-21T10:39:22;27.20;99.90
39997;DHT22;25688;52.338;21.072;2023-08-21T10:42:01;27.10;99.90
39997;DHT22;25688;52.338;21.072;2023-08-21T10:49:41;27.40;99.90
39997;DHT22;25688;52.338;21.072;2023-08-21T10:52:08;27.30;99.90
39997;DHT22;25688;52.338;21.072;2023-08-21T10:54:58;27.30;99.90
39997;DHT22;25688;52.338;21.072;2023-08-21T10:57:31;27.50;99.90
39997;DHT22;25688;52.338;21.072;2023-08-21T11:00:02;27.50;98.80
39997;DHT22;25688;52.338;21.072;2023-08-21T11:02:32;27.20;95.60
39997;DHT22;25688;52.338;21.072;2023-08-21T11:04:59;27.40;96.30
39997;DHT22;25688;52.338;21.072;2023-08-21T11:07:45;27.50;90.50
39997;DHT22;25688;52.338;21.072;2023-08-21T11:10:23;27.70;92.10
39997;DHT22;25688;52.338;21.072;2023-08-21T11:12:54;27.80;91.90
39997;DHT22;25688;52.338;21.072;2023-08-21T11:15:47;27.80;91.90
39997;DHT22;25688;52.338;21.072;2023-08-21T11:18:16;27.70;90.40
39997;DHT22;25688;52.338;21.072;2023-08-21T11:20:44;27.70;90.40
39997;DHT22;25688;52.338;21.072;2023-08-21T11:23:12;27.50;86.50
39997;DHT22;25688;52.338;21.072;2023-08-21T11:25:38;27.60;83.30
39997;DHT22;25688;52.338;21.072;2023-08-21T11:28:06;27.80;85.00
39997;DHT22;25688;52.338;21.072;2023-08-21T11:30:32;27.70;75.80
39997;DHT22;25688;52.338;21.072;2023-08-21T11:33:08;27.70;73.80
39997;DHT22;25688;52.338;21.072;2023-08-21T11:35:35;27.90;74.10
39997;DHT22;25688;52.338;21.072;2023-08-21T11:38:01;27.80;73.90
39997;DHT22;25688;52.338;21.072;2023-08-21T11:40:27;27.60;74.40
39997;DHT22;25688;52.338;21.072;2023-08-21T11:43:04;27.70;73.90
39997;DHT22;25688;52.338;21.072;2023-08-21T11:45:32;27.60;73.80
39997;DHT22;25688;52.338;21.072;2023-08-21T11:47:59;27.60;73.80
39997;DHT22;25688;52.338;21.072;2023-08-21T11:50:28;27.50;74.60
39997;DHT22;25688;52.338;21.072;2023-08-21T11:52:55;27.70;74.90
39997;DHT22;25688;52.338;21.072;2023-08-21T11:55:22;27.70;73.00
39997;DHT22;25688;52.338;21.072;2023-08-21T11:57:48;27.40;74.60
39997;DHT22;25688;52.338;21.072;2023-08-21T12:00:14;27.10;75.20
39997;DHT22;25688;52.338;21.072;2023-08-21T12:02:53;27.10;76.00
39997;DHT22;25688;52.338;21.072;2023-08-21T12:05:19;27.30;74.70
39997;DHT22;25688;52.338;21.072;2023-08-21T12:07:45;27.40;75.90
39997;DHT22;25688;52.338;21.072;2023-08-21T12:10:11;27.70;76.20
39997;DHT22;25688;52.338;21.072;2023-08-21T12:12:36;27.80;76.60
39997;DHT22;25688;52.338;21.072;2023-08-21T12:15:03;27.50;75.20
39997;DHT22;25688;52.338;21.072;2023-08-21T12:17:29;27.50;77.50
39997;DHT22;25688;52.338;21.072;2023-08-21T12:19:55;27.60;78.60
39997;DHT22;25688;52.338;21.072;2023-08-21T12:22:21;27.70;76.60
39997;DHT22;25688;52.338;21.072;2023-08-21T12:24:46;27.90;76.00
39997;DHT22;25688;52.338;21.072;2023-08-21T12:27:12;28.00;77.00
39997;DHT22;25688;52.338;21.072;2023-08-21T12:29:39;28.00;77.70
39997;DHT22;25688;52.338;21.072;2023-08-21T12:32:05;28.10;75.90
39997;DHT22;25688;52.338;21.072;2023-08-21T12:34:34;28.20;77.40
39997;DHT22;25688;52.338;21.072;2023-08-21T12:37:00;28.20;77.10
39997;DHT22;25688;52.338;21.072;2023-08-21T12:39:25;28.10;74.60
39997;DHT22;25688;52.338;21.072;2023-08-21T12:41:51;28.10;76.40
39997;DHT22;25688;52.338;21.072;2023-08-21T12:44:17;27.90;74.50
39997;DHT22;25688;52.338;21.072;2023-08-21T12:46:44;27.70;74.50
39997;DHT22;25688;52.338;21.072;2023-08-21T12:49:10;27.80;74.70
39997;DHT22;25688;52.338;21.072;2023-08-21T12:51:36;27.80;75.20
39997;DHT22;25688;52.338;21.072;2023-08-21T12:54:02;27.80;74.40
39997;DHT22;25688;52.338;21.072;2023-08-21T12:56:28;27.70;73.70
39997;DHT22;25688;52.338;21.072;2023-08-21T12:58:55;27.60;75.60
39997;DHT22;25688;52.338;21.072;2023-08-21T13:01:20;27.60;75.60
39997;DHT22;25688;52.338;21.072;2023-08-21T13:03:47;27.70;74.90
39997;DHT22;25688;52.338;21.072;2023-08-21T13:06:13;27.90;73.80
39997;DHT22;25688;52.338;21.072;2023-08-21T13:08:39;28.10;71.80
39997;DHT22;25688;52.338;21.072;2023-08-21T13:11:05;28.20;71.70
39997;DHT22;25688;52.338;21.072;2023-08-21T13:13:32;28.10;72.30
39997;DHT22;25688;52.338;21.072;2023-08-21T13:15:59;28.10;73.00
39997;DHT22;25688;52.338;21.072;2023-08-21T13:18:26;28.20;71.80
39997;DHT22;25688;52.338;21.072;2023-08-21T13:20:51;28.10;72.00
39997;DHT22;25688;52.338;21.072;2023-08-21T13:23:18;28.10;73.60
39997;DHT22;25688;52.338;21.072;2023-08-21T13:25:44;28.20;73.00
39997;DHT22;25688;52.338;21.072;2023-08-21T13:28:14;28.20;72.00
39997;DHT22;25688;52.338;21.072;2023-08-21T13:30:41;28.00;71.80
39997;DHT22;25688;52.338;21.072;2023-08-21T13:33:08;28.00;74.00
39997;DHT22;25688;52.338;21.072;2023-08-21T13:35:35;27.90;71.90
39997;DHT22;25688;52.338;21.072;2023-08-21T13:38:02;27.80;72.00
39997;DHT22;25688;52.338;21.072;2023-08-21T13:40:29;27.80;72.90
39997;DHT22;25688;52.338;21.072;2023-08-21T13:42:54;27.80;72.70
39997;DHT22;25688;52.338;21.072;2023-08-21T13:45:23;27.90;73.90
39997;DHT22;25688;52.338;21.072;2023-08-21T13:47:49;27.90;73.50
39997;DHT22;25688;52.338;21.072;2023-08-21T13:50:19;27.80;72.70
39997;DHT22;25688;52.338;21.072;2023-08-21T13:52:46;27.90;74.20
39997;DHT22;25688;52.338;21.072;2023-08-21T13:55:13;28.00;72.50
39997;DHT22;25688;52.338;21.072;2023-08-21T13:57:39;27.70;71.80
39997;DHT22;25688;52.338;21.072;2023-08-21T14:00:07;27.50;71.80
39997;DHT22;25688;52.338;21.072;2023-08-21T14:02:41;27.60;74.30
39997;DHT22;25688;52.338;21.072;2023-08-21T14:05:10;27.70;72.60
39997;DHT22;25688;52.338;21.072;2023-08-21T14:07:36;27.70;73.30
39997;DHT22;25688;52.338;21.072;2023-08-21T14:10:03;27.80;74.10
39997;DHT22;25688;52.338;21.072;2023-08-21T14:12:31;27.70;72.80
39997;DHT22;25688;52.338;21.072;2023-08-21T14:14:59;27.60;73.00
39997;DHT22;25688;52.338;21.072;2023-08-21T14:17:25;27.60;74.60
39997;DHT22;25688;52.338;21.072;2023-08-21T14:19:51;27.60;73.80
39997;DHT22;25688;52.338;21.072;2023-08-21T14:22:17;27.60;73.30
39997;DHT22;25688;52.338;21.072;2023-08-21T14:24:43;27.20;73.90
39997;DHT22;25688;52.338;21.072;2023-08-21T14:27:09;27.10;75.70
39997;DHT22;25688;52.338;21.072;2023-08-21T14:29:38;27.20;74.30
39997;DHT22;25688;52.338;21.072;2023-08-21T14:32:04;27.20;74.70
39997;DHT22;25688;52.338;21.072;2023-08-21T14:34:30;27.20;76.70
39997;DHT22;25688;52.338;21.072;2023-08-21T14:36:56;27.20;75.20
39997;DHT22;25688;52.338;21.072;2023-08-21T14:39:23;27.20;75.70
39997;DHT22;25688;52.338;21.072;2023-08-21T14:41:56;27.20;74.90
39997;DHT22;25688;52.338;21.072;2023-08-21T14:44:22;27.10;75.10
39997;DHT22;25688;52.338;21.072;2023-08-21T14:46:49;27.10;76.00
39997;DHT22;25688;52.338;21.072;2023-08-21T14:49:14;27.20;75.30
39997;DHT22;25688;52.338;21.072;2023-08-21T14:51:40;27.20;75.70
39997;DHT22;25688;52.338;21.072;2023-08-21T14:54:06;27.20;75.90
39997;DHT22;25688;52.338;21.072;2023-08-21T14:56:32;27.30;77.30
39997;DHT22;25688;52.338;21.072;2023-08-21T14:58:59;27.10;76.90
39997;DHT22;25688;52.338;21.072;2023-08-21T15:01:24;26.90;77.40
39997;DHT22;25688;52.338;21.072;2023-08-21T15:03:51;26.90;76.60
39997;DHT22;25688;52.338;21.072;2023-08-21T15:06:17;26.90;76.20
39997;DHT22;25688;52.338;21.072;2023-08-21T15:08:43;26.90;75.70
39997;DHT22;25688;52.338;21.072;2023-08-21T15:11:09;26.80;77.20
39997;DHT22;25688;52.338;21.072;2023-08-21T15:13:38;26.60;77.30
39997;DHT22;25688;52.338;21.072;2023-08-21T15:16:05;26.50;77.00
39997;DHT22;25688;52.338;21.072;2023-08-21T15:18:31;26.40;78.10
39997;DHT22;25688;52.338;21.072;2023-08-21T15:20:57;26.40;77.60
39997;DHT22;25688;52.338;21.072;2023-08-21T15:23:22;26.40;78.40
39997;DHT22;25688;52.338;21.072;2023-08-21T15:25:48;26.60;78.40
39997;DHT22;25688;52.338;21.072;2023-08-21T15:28:34;26.80;78.30
39997;DHT22;25688;52.338;21.072;2023-08-21T15:31:00;26.90;78.10